Time;durP1;ratioP1;P1;durP2;ratioP2;P2;SDS_P1;SDS_P2;PMS_P1;PMS_P2;Temp;Humidity;BMP_temperature;BMP_pressure;BME280_temperature;BME280_humidity;BME280_pressure;Samples;Min_cycle;Max_cycle;Signal;HPM_P1;HPM_P2
2023/05/28 00:00:01;;;;;;;13.00;4.78;;;11.20;99.90;;;;;;5069536;28;20037;-82
2023/05/28 00:02:27;;;;;;;13.60;4.82;;;11.20;99.90;;;;;;5036657;28;20044;-81
2023/05/28 00:04:54;;;;;;;17.33;5.00;;;11.20;99.90;;;;;;5053118;28;20144;-81
2023/05/28 00:07:21;;;;;;;14.93;4.70;;;11.20;99.90;;;;;;5036692;28;20083;-81
2023/05/28 00:09:48;;;;;;;13.90;4.32;;;11.20;99.90;;;;;;5036888;28;20120;-82
2023/05/28 00:12:15;;;;;;;10.82;4.70;;;11.10;99.90;;;;;;5050975;28;20076;-82
2023/05/28 00:14:42;;;;;;;16.67;4.85;;;11.10;99.90;;;;;;5072345;28;20047;-81
2023/05/28 00:17:09;;;;;;;17.63;4.90;;;11.00;99.90;;;;;;5072316;28;20086;-81
2023/05/28 00:19:35;;;;;;;15.63;4.60;;;11.00;99.90;;;;;;5072405;28;20094;-81
2023/05/28 00:22:02;;;;;;;14.75;4.55;;;11.00;99.90;;;;;;5062609;28;20040;-81
2023/05/28 00:24:29;;;;;;;12.43;4.97;;;11.00;99.90;;;;;;5080115;28;20115;-82
2023/05/28 00:26:55;;;;;;;13.43;4.70;;;11.00;99.90;;;;;;5072470;28;20162;-81
2023/05/28 00:29:24;;;;;;;16.17;4.53;;;10.90;99.90;;;;;;5072578;28;20610;-82
2023/05/28 00:31:51;;;;;;;15.80;4.57;;;10.90;99.90;;;;;;5069134;28;20504;-82
2023/05/28 00:34:17;;;;;;;15.05;4.15;;;10.90;99.90;;;;;;5053705;28;20044;-81
2023/05/28 00:36:44;;;;;;;14.35;4.53;;;10.80;99.90;;;;;;5052507;28;20037;-82
2023/05/28 00:39:11;;;;;;;13.70;4.40;;;10.80;99.90;;;;;;5052698;28;20077;-82
2023/05/28 00:41:40;;;;;;;13.60;4.60;;;10.80;99.90;;;;;;5068581;28;20037;-82
2023/05/28 00:44:08;;;;;;;17.23;4.70;;;10.80;99.90;;;;;;5036782;28;20040;-82
2023/05/28 00:46:45;;;;;;;28.13;5.35;;;10.80;99.90;;;;;;5065389;28;20048;-82
2023/05/28 00:49:12;;;;;;;16.45;5.10;;;10.80;99.90;;;;;;5089422;28;20033;-82
2023/05/28 00:51:40;;;;;;;13.13;4.82;;;10.80;99.90;;;;;;5088688;28;20491;-81
2023/05/28 00:54:08;;;;;;;13.32;4.75;;;10.80;99.90;;;;;;5071853;28;20084;-82
2023/05/28 00:56:35;;;;;;;16.13;4.95;;;10.90;99.90;;;;;;5055671;28;20551;-82
2023/05/28 00:59:01;;;;;;;21.33;4.80;;;10.90;99.90;;;;;;5072752;28;20048;-82
2023/05/28 01:01:29;;;;;;;13.15;4.18;;;10.90;99.90;;;;;;5059199;28;20045;-81
2023/05/28 01:03:56;;;;;;;20.13;5.05;;;10.90;99.90;;;;;;5048267;28;20072;-81
2023/05/28 01:06:23;;;;;;;15.88;4.40;;;10.90;99.90;;;;;;5039767;28;20163;-82
2023/05/28 01:08:51;;;;;;;19.55;4.50;;;11.00;99.90;;;;;;5055979;28;20132;-82
2023/05/28 01:11:19;;;;;;;12.50;4.38;;;11.00;99.90;;;;;;5055871;28;20493;-82
2023/05/28 01:13:47;;;;;;;12.90;4.50;;;11.00;99.90;;;;;;5044968;28;20075;-82
2023/05/28 01:16:14;;;;;;;21.55;4.97;;;11.00;99.90;;;;;;5075256;28;20071;-82
2023/05/28 01:18:44;;;;;;;16.77;5.57;;;11.00;99.90;;;;;;5092235;28;20463;-82
2023/05/28 01:21:12;;;;;;;17.08;4.78;;;11.00;99.90;;;;;;5076226;28;20040;-82
2023/05/28 01:23:44;;;;;;;11.75;4.30;;;11.10;99.90;;;;;;5073444;28;20044;-81
2023/05/28 01:26:13;;;;;;;15.63;4.63;;;11.10;99.90;;;;;;5108884;28;20462;-82
2023/05/28 01:28:44;;;;;;;12.57;4.60;;;11.10;99.90;;;;;;5075626;28;20047;-82
2023/05/28 01:31:11;;;;;;;14.23;4.68;;;11.10;99.90;;;;;;5076555;28;20098;-82
2023/05/28 01:33:41;;;;;;;14.80;4.68;;;11.10;99.90;;;;;;5074701;28;20434;-81
2023/05/28 01:36:30;;;;;;;17.23;5.07;;;11.10;99.90;;;;;;5056060;28;20045;-82
2023/05/28 01:39:01;;;;;;;13.73;4.72;;;11.10;99.90;;;;;;5071671;28;20041;-81
2023/05/28 01:41:29;;;;;;;15.32;4.43;;;11.10;99.90;;;;;;5071800;28;20033;-81
2023/05/28 01:43:56;;;;;;;19.20;4.55;;;11.10;99.90;;;;;;5071459;28;20128;-82
2023/05/28 01:46:23;;;;;;;16.45;5.13;;;11.10;99.90;;;;;;5073136;28;20041;-81
2023/05/28 01:48:50;;;;;;;16.50;5.15;;;11.10;99.90;;;;;;5071365;28;20070;-82
2023/05/28 01:51:21;;;;;;;13.55;4.30;;;11.20;99.90;;;;;;5038664;28;20041;-82
2023/05/28 01:53:48;;;;;;;16.15;4.93;;;11.10;99.90;;;;;;5071190;28;20077;-82
2023/05/28 01:56:15;;;;;;;16.60;4.93;;;11.10;99.90;;;;;;5053284;28;20040;-82
2023/05/28 01:58:41;;;;;;;16.15;4.82;;;11.10;99.90;;;;;;5091253;28;20070;-82
2023/05/28 02:01:17;;;;;;;17.15;4.97;;;11.10;99.90;;;;;;5061725;28;20033;-81
2023/05/28 02:03:44;;;;;;;16.30;5.30;;;11.10;99.90;;;;;;5087671;28;20041;-81
2023/05/28 02:06:11;;;;;;;16.33;4.88;;;11.20;99.90;;;;;;5054828;28;20040;-81
2023/05/28 02:08:37;;;;;;;16.58;5.13;;;11.10;99.90;;;;;;5071417;28;20575;-81
2023/05/28 02:11:04;;;;;;;15.05;5.03;;;11.10;99.90;;;;;;5070119;28;20722;-82
2023/05/28 02:13:31;;;;;;;17.17;4.97;;;11.20;99.90;;;;;;5054926;28;20037;-81
2023/05/28 02:15:58;;;;;;;15.15;4.75;;;11.20;99.90;;;;;;5059413;28;20040;-82
2023/05/28 02:18:24;;;;;;;14.25;4.53;;;11.20;99.90;;;;;;5074613;28;20048;-81
2023/05/28 02:20:51;;;;;;;16.08;4.97;;;11.20;99.90;;;;;;5074293;28;20036;-82
2023/05/28 02:23:18;;;;;;;15.45;4.88;;;11.20;99.90;;;;;;5091278;28;20044;-81
2023/05/28 02:25:44;;;;;;;17.95;4.95;;;11.20;99.90;;;;;;5073701;28;20048;-82
2023/05/28 02:28:11;;;;;;;12.80;4.80;;;11.20;99.90;;;;;;5042961;28;20115;-81
2023/05/28 02:30:38;;;;;;;11.43;4.30;;;11.20;99.90;;;;;;5058097;28;20040;-81
2023/05/28 02:33:04;;;;;;;13.88;4.18;;;11.20;99.90;;;;;;5074586;28;20524;-81
2023/05/28 02:35:32;;;;;;;12.90;4.20;;;11.20;99.90;;;;;;5057746;28;20067;-81
2023/05/28 02:37:58;;;;;;;15.85;4.97;;;11.20;99.90;;;;;;5058010;28;20045;-81
2023/05/28 02:40:25;;;;;;;14.32;4.57;;;11.30;99.90;;;;;;5055121;28;20055;-81
2023/05/28 02:42:52;;;;;;;16.08;5.10;;;11.30;99.90;;;;;;5090336;28;20037;-81
2023/05/28 02:45:19;;;;;;;14.95;4.50;;;11.30;99.90;;;;;;5107220;28;20051;-82
2023/05/28 02:47:46;;;;;;;11.77;4.30;;;11.30;99.90;;;;;;5057460;28;20041;-82
2023/05/28 02:50:12;;;;;;;17.23;5.38;;;11.30;99.90;;;;;;5057479;28;20040;-82
2023/05/28 02:52:39;;;;;;;11.70;4.47;;;11.30;99.90;;;;;;5107397;28;20052;-82
2023/05/28 02:55:07;;;;;;;15.23;4.47;;;11.30;99.90;;;;;;5073793;28;20048;-81
2023/05/28 02:57:34;;;;;;;14.93;5.20;;;11.30;99.90;;;;;;5050712;28;20037;-81
2023/05/28 03:00:01;;;;;;;14.88;4.28;;;11.30;99.90;;;;;;5037329;28;20043;-82
2023/05/28 03:02:27;;;;;;;14.40;4.45;;;11.30;99.90;;;;;;5045755;28;20076;-82
2023/05/28 03:04:54;;;;;;;14.90;4.18;;;11.30;99.90;;;;;;5037157;28;20489;-82
2023/05/28 03:07:21;;;;;;;18.98;4.93;;;11.30;99.90;;;;;;5056053;28;20041;-81
2023/05/28 03:09:48;;;;;;;13.57;4.15;;;11.30;99.90;;;;;;5089782;28;20066;-81
2023/05/28 03:12:15;;;;;;;14.82;4.50;;;11.30;99.90;;;;;;5073035;28;20052;-82
2023/05/28 03:14:41;;;;;;;11.32;4.20;;;11.30;99.90;;;;;;5069646;28;20036;-82
2023/05/28 03:17:08;;;;;;;15.15;4.32;;;11.30;99.90;;;;;;5052866;28;20095;-82
2023/05/28 03:19:36;;;;;;;13.65;3.92;;;11.30;99.90;;;;;;5053265;28;20119;-82
2023/05/28 03:22:03;;;;;;;21.50;5.47;;;11.30;99.90;;;;;;5069316;28;20049;-82
2023/05/28 03:24:30;;;;;;;15.43;4.13;;;11.40;99.90;;;;;;5054078;28;20809;-82
2023/05/28 03:26:59;;;;;;;20.17;4.47;;;11.40;99.90;;;;;;5089872;28;20037;-82
2023/05/28 03:29:26;;;;;;;16.05;4.88;;;11.40;99.90;;;;;;5089568;28;20048;-82
2023/05/28 03:31:52;;;;;;;13.95;4.80;;;11.40;99.90;;;;;;5073094;28;20043;-82
2023/05/28 03:34:20;;;;;;;9.20;3.83;;;11.40;99.90;;;;;;5073152;28;20040;-82
2023/05/28 03:36:47;;;;;;;11.45;4.10;;;11.40;99.90;;;;;;5041474;28;20045;-82
2023/05/28 03:39:13;;;;;;;13.52;4.20;;;11.40;99.90;;;;;;5089072;28;20394;-82
2023/05/28 03:41:40;;;;;;;17.65;4.93;;;11.40;99.90;;;;;;5056830;28;20033;-82
2023/05/28 03:44:07;;;;;;;11.15;3.97;;;11.40;99.90;;;;;;5088953;28;20041;-82
2023/05/28 03:46:34;;;;;;;14.32;4.40;;;11.40;99.90;;;;;;5045799;28;20039;-81
2023/05/28 03:49:00;;;;;;;10.27;3.70;;;11.40;99.90;;;;;;5069353;28;20135;-82
2023/05/28 03:51:27;;;;;;;12.48;4.18;;;11.40;99.90;;;;;;5069351;28;20052;-82
2023/05/28 03:53:54;;;;;;;12.43;3.83;;;11.30;99.90;;;;;;5069151;28;20048;-82
2023/05/28 03:56:21;;;;;;;12.70;4.72;;;11.30;99.90;;;;;;5042780;28;20044;-82
2023/05/28 03:58:47;;;;;;;10.15;4.43;;;11.30;99.90;;;;;;5072799;28;20051;-82
2023/05/28 04:01:14;;;;;;;14.27;4.03;;;11.30;99.90;;;;;;5073000;28;20041;-81
2023/05/28 04:03:41;;;;;;;12.75;4.13;;;11.30;99.90;;;;;;5072457;28;20052;-82
2023/05/28 04:06:08;;;;;;;14.18;4.30;;;11.30;99.90;;;;;;5072183;28;20036;-82
2023/05/28 04:08:34;;;;;;;12.50;3.72;;;11.30;99.90;;;;;;5052901;28;20079;-82
2023/05/28 04:11:02;;;;;;;13.30;4.70;;;11.30;99.90;;;;;;5036029;28;20053;-81
2023/05/28 04:13:28;;;;;;;13.45;4.25;;;11.30;99.90;;;;;;5069276;28;20037;-81
2023/05/28 04:15:55;;;;;;;10.18;4.00;;;11.30;99.90;;;;;;5036619;28;20102;-82
2023/05/28 04:18:22;;;;;;;13.88;3.72;;;11.30;99.90;;;;;;5086155;28;20040;-81
2023/05/28 04:20:49;;;;;;;11.48;3.88;;;11.30;99.90;;;;;;5056206;28;20507;-81
2023/05/28 04:23:15;;;;;;;12.00;4.18;;;11.40;99.90;;;;;;5072339;28;20075;-81
2023/05/28 04:25:42;;;;;;;11.68;3.88;;;11.40;99.90;;;;;;5056510;28;20028;-81
2023/05/28 04:28:11;;;;;;;12.98;4.15;;;11.40;99.90;;;;;;5088849;28;20048;-81
2023/05/28 04:30:37;;;;;;;13.80;3.78;;;11.40;99.90;;;;;;5056571;28;20377;-82
2023/05/28 04:33:06;;;;;;;12.73;4.00;;;11.50;99.90;;;;;;5088834;28;20105;-82
2023/05/28 04:35:33;;;;;;;11.45;3.45;;;11.50;99.90;;;;;;5076395;28;20048;-81
2023/05/28 04:37:59;;;;;;;10.35;4.50;;;11.50;99.90;;;;;;5068243;28;20120;-82
2023/05/28 04:40:26;;;;;;;12.73;3.97;;;11.60;99.90;;;;;;5050357;28;20036;-82
2023/05/28 04:42:55;;;;;;;14.23;3.83;;;11.60;99.90;;;;;;5059756;28;20036;-82
2023/05/28 04:45:22;;;;;;;14.77;4.18;;;11.60;99.90;;;;;;5076494;28;20067;-82
2023/05/28 04:47:50;;;;;;;14.77;4.47;;;11.70;99.90;;;;;;5090599;28;20033;-81
2023/05/28 04:50:16;;;;;;;16.08;4.00;;;11.80;99.90;;;;;;5039993;28;20119;-82
2023/05/28 04:52:43;;;;;;;15.38;4.07;;;11.80;99.90;;;;;;5056086;28;20520;-81
2023/05/28 04:55:13;;;;;;;13.93;4.18;;;11.90;99.90;;;;;;5039639;28;20497;-81
2023/05/28 04:57:39;;;;;;;11.50;3.80;;;11.90;99.90;;;;;;5056543;28;20033;-81
2023/05/28 05:00:12;;;;;;;15.95;4.22;;;11.90;99.90;;;;;;5070757;28;20048;-81
2023/05/28 05:02:41;;;;;;;13.18;3.72;;;12.00;99.90;;;;;;5093530;28;20037;-81
2023/05/28 05:05:08;;;;;;;10.43;3.67;;;12.00;99.90;;;;;;5058767;28;20040;-81
2023/05/28 05:07:39;;;;;;;11.30;3.75;;;12.10;99.90;;;;;;5089122;28;20080;-81
2023/05/28 05:10:08;;;;;;;12.10;3.72;;;12.20;99.90;;;;;;5041663;28;20122;-81
2023/05/28 05:12:35;;;;;;;10.75;3.47;;;12.20;99.90;;;;;;5072436;28;20497;-81
2023/05/28 05:15:04;;;;;;;13.30;3.70;;;12.30;99.90;;;;;;5088813;28;20037;-81
2023/05/28 05:17:31;;;;;;;14.02;3.83;;;12.30;99.90;;;;;;5072441;28;20082;-81
2023/05/28 05:20:06;;;;;;;10.90;3.70;;;12.40;99.90;;;;;;5088741;28;20041;-81
2023/05/28 05:22:32;;;;;;;12.33;4.13;;;12.40;99.90;;;;;;5088892;28;20044;-81
2023/05/28 05:24:59;;;;;;;10.10;3.35;;;12.50;99.90;;;;;;5055700;28;20033;-81
2023/05/28 05:27:28;;;;;;;12.32;3.33;;;12.50;99.90;;;;;;5071825;28;20106;-82
2023/05/28 05:29:55;;;;;;;14.70;3.63;;;12.60;99.90;;;;;;5056357;28;20083;-82
2023/05/28 05:32:21;;;;;;;11.55;3.42;;;12.60;99.90;;;;;;5071916;28;20044;-82
2023/05/28 05:34:48;;;;;;;15.38;3.53;;;12.70;99.90;;;;;;5071883;28;20045;-81
2023/05/28 05:37:15;;;;;;;11.73;3.45;;;12.70;99.90;;;;;;5071546;28;20037;-82
2023/05/28 05:39:41;;;;;;;14.85;4.20;;;12.80;99.90;;;;;;5073025;28;20375;-82
2023/05/28 05:42:08;;;;;;;12.98;3.88;;;12.80;99.90;;;;;;5086937;28;20040;-82
2023/05/28 05:44:35;;;;;;;15.35;3.25;;;12.80;99.90;;;;;;5055061;28;20068;-82
2023/05/28 05:47:01;;;;;;;11.95;3.70;;;12.70;99.90;;;;;;5054158;28;20044;-82
2023/05/28 05:49:28;;;;;;;13.88;3.45;;;12.80;99.90;;;;;;5071280;28;20044;-82
2023/05/28 05:51:55;;;;;;;15.13;4.30;;;12.80;99.90;;;;;;5080802;28;20041;-82
2023/05/28 05:54:21;;;;;;;15.73;4.72;;;12.80;99.90;;;;;;5069946;28;20041;-82
2023/05/28 05:56:48;;;;;;;9.88;4.18;;;12.80;99.90;;;;;;5038584;28;20036;-82
2023/05/28 05:59:15;;;;;;;13.15;4.13;;;12.90;99.90;;;;;;5054697;28;20041;-82
2023/05/28 06:01:41;;;;;;;11.50;4.18;;;12.90;99.90;;;;;;5039246;28;20048;-82
2023/05/28 06:04:08;;;;;;;12.15;3.97;;;13.00;99.90;;;;;;5061422;28;20124;-81
2023/05/28 06:06:37;;;;;;;12.20;4.60;;;13.00;99.90;;;;;;5054545;28;20041;-82
2023/05/28 06:09:04;;;;;;;9.38;4.50;;;13.10;99.90;;;;;;5071570;28;20044;-81
2023/05/28 06:11:31;;;;;;;15.05;4.40;;;13.10;99.90;;;;;;5059578;28;20048;-81
2023/05/28 06:13:58;;;;;;;16.35;4.35;;;13.20;99.90;;;;;;5058211;28;20044;-81
2023/05/28 06:16:25;;;;;;;12.52;4.50;;;13.20;99.90;;;;;;5058205;28;20037;-82
2023/05/28 06:18:52;;;;;;;13.82;4.45;;;13.20;99.90;;;;;;5058300;28;20055;-81
2023/05/28 06:21:19;;;;;;;11.20;3.90;;;13.20;99.90;;;;;;5057660;28;20127;-82
2023/05/28 06:23:45;;;;;;;12.85;4.32;;;13.30;99.90;;;;;;5058162;28;20516;-81
2023/05/28 06:26:12;;;;;;;13.02;4.13;;;13.40;99.90;;;;;;5069109;28;20073;-82
2023/05/28 06:28:39;;;;;;;9.50;3.95;;;13.40;99.90;;;;;;5070839;28;20128;-83
2023/05/28 06:31:06;;;;;;;12.93;4.45;;;13.50;99.90;;;;;;5038351;28;20075;-83
2023/05/28 06:33:33;;;;;;;17.88;4.20;;;13.50;99.90;;;;;;5038776;28;20204;-83
2023/05/28 06:35:59;;;;;;;10.90;4.13;;;13.60;99.90;;;;;;5070904;28;20136;-83
2023/05/28 06:38:26;;;;;;;13.25;3.88;;;13.70;99.90;;;;;;5064641;28;20036;-82
2023/05/28 06:40:53;;;;;;;9.80;3.22;;;13.80;99.90;;;;;;5070904;28;20397;-83
2023/05/28 06:43:20;;;;;;;9.38;3.65;;;13.80;99.90;;;;;;5061130;28;20067;-83
2023/05/28 06:45:46;;;;;;;15.55;3.88;;;13.90;99.90;;;;;;5037468;28;20041;-83
2023/05/28 06:48:13;;;;;;;11.25;4.00;;;14.00;99.90;;;;;;5054169;28;20465;-82
2023/05/28 06:50:40;;;;;;;9.48;3.88;;;14.10;99.90;;;;;;5037391;28;20095;-83
2023/05/28 06:53:07;;;;;;;11.45;4.03;;;14.20;99.90;;;;;;5039089;28;20552;-82
2023/05/28 06:55:34;;;;;;;11.70;3.60;;;14.30;99.90;;;;;;5044772;28;20076;-83
2023/05/28 06:58:01;;;;;;;11.23;4.05;;;14.30;99.90;;;;;;5057189;28;20536;-83
2023/05/28 07:00:27;;;;;;;9.32;3.72;;;14.40;99.90;;;;;;5090062;28;20439;-83
2023/05/28 07:02:54;;;;;;;12.43;4.05;;;14.40;99.90;;;;;;5092858;28;20040;-83
2023/05/28 07:05:21;;;;;;;11.18;4.13;;;14.50;99.90;;;;;;5056140;28;20036;-82
2023/05/28 07:07:47;;;;;;;12.07;4.05;;;14.60;99.90;;;;;;5089867;28;20052;-82
2023/05/28 07:10:14;;;;;;;10.32;4.07;;;14.60;99.90;;;;;;5073201;28;20076;-83
2023/05/28 07:12:41;;;;;;;15.05;4.90;;;14.70;99.90;;;;;;5073071;28;20055;-83
2023/05/28 07:15:08;;;;;;;14.20;3.92;;;14.70;99.90;;;;;;5069967;28;20072;-82
2023/05/28 07:17:35;;;;;;;10.27;4.22;;;14.80;99.90;;;;;;5053540;28;20494;-82
2023/05/28 07:20:04;;;;;;;8.80;3.88;;;14.80;99.90;;;;;;5056946;28;20078;-82
2023/05/28 07:22:30;;;;;;;13.60;4.00;;;14.90;99.90;;;;;;5073726;28;20036;-82
2023/05/28 07:24:57;;;;;;;7.15;3.20;;;15.00;99.90;;;;;;5056858;28;20074;-82
2023/05/28 07:27:24;;;;;;;9.27;3.42;;;15.10;99.90;;;;;;5056967;28;20043;-86
2023/05/28 07:29:50;;;;;;;10.93;3.60;;;15.10;99.90;;;;;;5051874;28;20525;-86
2023/05/28 07:32:17;;;;;;;11.15;3.55;;;15.20;99.90;;;;;;5082826;28;20036;-86
2023/05/28 07:34:44;;;;;;;8.48;3.70;;;15.30;99.90;;;;;;5075288;28;20033;-88
2023/05/28 07:37:11;;;;;;;11.23;3.65;;;15.40;99.90;;;;;;5037863;28;20037;-88
2023/05/28 07:39:37;;;;;;;10.73;3.38;;;15.50;99.90;;;;;;5047022;28;20048;-88
2023/05/28 07:42:06;;;;;;;10.63;3.40;;;15.50;99.90;;;;;;5069942;28;20041;-86
2023/05/28 07:44:33;;;;;;;11.13;3.45;;;15.70;99.90;;;;;;5104420;28;20041;-86
2023/05/28 07:47:00;;;;;;;11.05;3.90;;;15.80;99.90;;;;;;5057808;28;20051;-87
2023/05/28 07:49:27;;;;;;;9.80;3.58;;;15.80;99.90;;;;;;5052981;28;20047;-85
2023/05/28 07:51:53;;;;;;;10.07;3.00;;;15.90;99.90;;;;;;5051123;28;20119;-87
2023/05/28 07:54:20;;;;;;;11.77;3.40;;;16.00;99.90;;;;;;5056774;28;20044;-86
2023/05/28 07:56:48;;;;;;;10.38;3.40;;;16.10;99.90;;;;;;5073336;28;20048;-88
2023/05/28 07:59:15;;;;;;;9.18;3.33;;;16.10;99.90;;;;;;5053235;28;20088;-88
2023/05/28 08:01:41;;;;;;;8.35;3.33;;;16.20;99.90;;;;;;5053108;28;20041;-85
2023/05/28 08:04:08;;;;;;;10.43;3.40;;;16.30;99.90;;;;;;5055497;28;20063;-84
2023/05/28 08:06:35;;;;;;;11.23;3.10;;;16.30;99.90;;;;;;5071854;28;20098;-84
2023/05/28 08:09:02;;;;;;;9.07;3.30;;;16.40;99.90;;;;;;5072074;28;20094;-83
2023/05/28 08:11:28;;;;;;;8.38;3.20;;;16.50;99.90;;;;;;5088882;28;20505;-83
2023/05/28 08:13:55;;;;;;;9.43;3.20;;;16.60;99.90;;;;;;5071688;28;20265;-83
2023/05/28 08:16:22;;;;;;;7.97;2.90;;;16.80;99.90;;;;;;5056047;28;20036;-83
2023/05/28 08:18:48;;;;;;;6.57;3.10;;;16.90;99.90;;;;;;5105137;28;20041;-84
2023/05/28 08:21:15;;;;;;;6.63;3.03;;;17.00;99.90;;;;;;5088442;28;20055;-84
2023/05/28 08:23:42;;;;;;;12.00;3.10;;;17.10;99.90;;;;;;5072286;28;20037;-85
2023/05/28 08:26:09;;;;;;;7.60;3.17;;;17.10;99.90;;;;;;5055714;28;20055;-84
2023/05/28 08:28:36;;;;;;;6.72;3.38;;;17.10;99.90;;;;;;5071670;28;20056;-84
2023/05/28 08:31:03;;;;;;;9.38;3.70;;;17.20;99.90;;;;;;5056040;28;20036;-84
2023/05/28 08:33:30;;;;;;;6.18;3.15;;;17.20;99.90;;;;;;5055744;28;20063;-84
2023/05/28 08:35:56;;;;;;;6.65;3.20;;;17.30;99.90;;;;;;5071809;28;20040;-85
2023/05/28 08:38:23;;;;;;;8.43;3.08;;;17.40;99.90;;;;;;5051602;28;20493;-85
2023/05/28 08:40:54;;;;;;;7.72;3.17;;;17.60;99.90;;;;;;5051862;28;20524;-85
2023/05/28 08:43:21;;;;;;;7.25;3.20;;;17.60;99.90;;;;;;5068526;28;20036;-85
2023/05/28 08:45:51;;;;;;;7.45;3.63;;;17.80;99.90;;;;;;5069024;28;20037;-85
2023/05/28 08:48:19;;;;;;;7.28;3.75;;;17.80;99.90;;;;;;5068660;28;20090;-85
2023/05/28 08:50:48;;;;;;;5.95;3.17;;;17.80;99.90;;;;;;5068700;28;20428;-83
2023/05/28 08:53:17;;;;;;;7.55;2.90;;;17.90;99.90;;;;;;5088970;28;20102;-83
2023/05/28 08:55:45;;;;;;;6.97;3.05;;;18.00;99.90;;;;;;5088492;28;20489;-83
2023/05/28 08:58:13;;;;;;;7.40;3.33;;;18.10;99.90;;;;;;5088372;28;20044;-84
2023/05/28 09:00:40;;;;;;;7.05;3.55;;;18.20;99.90;;;;;;5071982;28;20452;-83
2023/05/28 09:03:07;;;;;;;8.88;4.18;;;18.30;99.90;;;;;;5088674;28;20044;-84
2023/05/28 09:05:38;;;;;;;9.43;3.65;;;18.40;99.90;;;;;;5056079;28;20040;-85
2023/05/28 09:08:10;;;;;;;7.05;3.42;;;18.40;99.90;;;;;;5052582;28;20489;-83
2023/05/28 09:10:40;;;;;;;8.48;3.05;;;18.50;99.90;;;;;;5068268;28;20144;-85
2023/05/28 09:13:07;;;;;;;6.57;3.20;;;18.60;99.90;;;;;;5068124;28;20059;-84
2023/05/28 09:15:35;;;;;;;7.88;3.47;;;18.70;99.90;;;;;;5068302;28;20127;-87
2023/05/28 09:18:04;;;;;;;9.38;3.67;;;18.80;99.90;;;;;;5060565;28;20090;-86
2023/05/28 09:20:31;;;;;;;7.57;3.35;;;18.90;99.90;;;;;;5069861;28;20037;-88
2023/05/28 09:23:04;;;;;;;7.28;3.53;;;18.90;99.90;;;;;;5045004;28;20493;-88
2023/05/28 09:25:38;;;;;;;6.15;3.42;;;19.00;99.80;;;;;;5084489;28;20481;-88
2023/05/28 09:28:04;;;;;;;6.43;3.40;;;19.10;99.90;;;;;;5089839;28;20489;-87
2023/05/28 09:30:35;;;;;;;8.05;3.17;;;19.20;99.20;;;;;;5053655;28;20044;-86
2023/05/28 09:33:03;;;;;;;6.88;2.90;;;19.20;98.30;;;;;;5079419;28;20036;-86
2023/05/28 09:35:30;;;;;;;8.13;3.40;;;19.30;97.70;;;;;;5075777;28;20445;-86
2023/05/28 09:38:04;;;;;;;5.80;3.40;;;19.30;98.70;;;;;;5077765;28;20498;-86
2023/05/28 09:40:31;;;;;;;10.10;3.45;;;19.40;98.70;;;;;;5086676;28;20489;-86
2023/05/28 09:42:58;;;;;;;5.60;2.88;;;19.50;97.90;;;;;;5074682;28;20032;-87
2023/05/28 09:45:26;;;;;;;6.10;3.22;;;19.60;98.20;;;;;;5047477;28;20037;-86
2023/05/28 09:47:53;;;;;;;6.70;3.25;;;19.80;97.80;;;;;;5047403;28;20117;-85
2023/05/28 09:50:20;;;;;;;7.38;3.42;;;19.80;97.20;;;;;;5086618;28;20382;-88
2023/05/28 09:52:47;;;;;;;7.10;3.40;;;19.70;96.30;;;;;;5065457;28;20048;-88
2023/05/28 09:55:18;;;;;;;6.80;3.63;;;19.80;96.60;;;;;;5092322;28;20043;-88
2023/05/28 09:57:50;;;;;;;6.68;3.75;;;19.90;95.40;;;;;;5071794;28;20044;-87
2023/05/28 10:00:26;;;;;;;6.60;3.63;;;20.00;96.40;;;;;;5086437;28;20099;-87
2023/05/28 10:03:16;;;;;;;7.68;3.45;;;20.20;95.60;;;;;;5071549;28;20128;-88
2023/05/28 10:05:48;;;;;;;8.90;3.22;;;20.30;95.10;;;;;;5071445;28;20378;-85
2023/05/28 10:08:17;;;;;;;6.85;3.40;;;20.30;95.50;;;;;;5071449;28;20044;-83
2023/05/28 10:10:48;;;;;;;7.15;3.38;;;20.30;94.00;;;;;;5072915;28;20053;-82
2023/05/28 10:13:16;;;;;;;7.03;3.42;;;20.30;94.50;;;;;;5096145;28;20047;-81
2023/05/28 10:15:43;;;;;;;6.38;3.75;;;20.30;93.90;;;;;;5074653;28;20127;-79
2023/05/28 10:18:11;;;;;;;8.25;3.80;;;20.30;94.20;;;;;;5074453;28;20492;-81
2023/05/28 10:20:38;;;;;;;7.95;3.47;;;20.50;94.10;;;;;;5074213;28;20076;-81
2023/05/28 10:23:05;;;;;;;7.38;3.60;;;20.50;93.70;;;;;;5070028;28;20076;-82
2023/05/28 10:25:33;;;;;;;8.65;4.00;;;20.70;93.90;;;;;;5071166;28;20087;-82
2023/05/28 10:28:02;;;;;;;8.18;3.67;;;20.90;94.10;;;;;;5070163;28;20044;-82
2023/05/28 10:30:33;;;;;;;7.10;4.05;;;21.10;94.10;;;;;;5054714;28;20036;-83
2023/05/28 10:33:15;;;;;;;8.85;4.00;;;21.20;92.50;;;;;;5087924;28;20119;-81
2023/05/28 10:35:56;;;;;;;9.57;4.75;;;21.30;92.60;;;;;;5090634;28;20041;-81
2023/05/28 10:38:23;;;;;;;11.18;4.80;;;21.40;91.80;;;;;;5090777;28;20041;-80
2023/05/28 10:40:51;;;;;;;7.88;5.18;;;21.50;93.40;;;;;;5073847;28;20090;-83
2023/05/28 10:43:41;;;;;;;9.88;4.57;;;21.60;93.00;;;;;;5073989;28;20036;-82
2023/05/28 10:46:12;;;;;;;9.68;4.95;;;21.60;90.90;;;;;;5090125;28;20036;-81
2023/05/28 10:48:40;;;;;;;7.95;4.47;;;21.70;91.00;;;;;;5090101;28;20070;-83
2023/05/28 10:51:08;;;;;;;8.73;4.85;;;21.80;91.00;;;;;;5073564;28;20431;-82
2023/05/28 10:53:34;;;;;;;9.02;4.45;;;21.80;91.60;;;;;;5073413;28;20037;-83
2023/05/28 10:56:02;;;;;;;8.35;4.82;;;22.00;91.80;;;;;;5053574;28;20044;-83
2023/05/28 10:58:34;;;;;;;8.90;4.43;;;22.10;91.50;;;;;;5037547;28;20484;-82
2023/05/28 11:01:11;;;;;;;7.88;4.32;;;22.20;90.60;;;;;;5053410;28;20040;-80
2023/05/28 11:03:45;;;;;;;7.55;3.97;;;22.10;86.90;;;;;;5084647;28;20029;-82
2023/05/28 11:06:13;;;;;;;7.43;3.40;;;22.10;90.50;;;;;;5090171;28;20082;-82
2023/05/28 11:08:46;;;;;;;9.30;4.15;;;22.10;89.70;;;;;;5090302;28;20044;-82
2023/05/28 11:11:15;;;;;;;6.03;3.40;;;22.20;89.20;;;;;;5089338;28;20072;-82
2023/05/28 11:13:47;;;;;;;7.63;3.67;;;22.10;86.80;;;;;;5089843;28;20041;-83
2023/05/28 11:16:16;;;;;;;7.45;3.35;;;22.10;86.90;;;;;;5073548;28;20048;-84
2023/05/28 11:19:01;;;;;;;6.80;3.08;;;22.20;86.10;;;;;;5089923;28;20098;-83
2023/05/28 11:21:28;;;;;;;7.40;3.08;;;22.20;85.20;;;;;;5106626;28;20749;-83
2023/05/28 11:24:02;;;;;;;5.55;2.85;;;22.30;88.00;;;;;;5063230;28;20033;-83
2023/05/28 11:26:30;;;;;;;8.48;3.03;;;22.30;84.50;;;;;;5053315;28;20044;-83
2023/05/28 11:28:56;;;;;;;6.85;2.70;;;22.30;86.60;;;;;;5069550;28;20044;-83
2023/05/28 11:31:23;;;;;;;6.50;2.70;;;22.30;86.80;;;;;;5053336;28;20037;-82
2023/05/28 11:33:51;;;;;;;8.25;3.00;;;22.20;85.90;;;;;;5036872;28;20044;-81
2023/05/28 11:36:21;;;;;;;6.22;2.75;;;22.40;87.10;;;;;;5053522;28;20099;-82
2023/05/28 11:38:59;;;;;;;8.13;2.80;;;22.40;88.40;;;;;;5036787;28;20083;-83
2023/05/28 11:41:26;;;;;;;8.13;2.75;;;22.40;88.80;;;;;;5054288;28;20044;-83
2023/05/28 11:43:53;;;;;;;7.45;2.60;;;22.40;89.80;;;;;;5056112;28;20432;-83
2023/05/28 11:46:22;;;;;;;5.88;2.55;;;22.40;90.40;;;;;;5073025;28;20090;-81
2023/05/28 11:48:50;;;;;;;8.52;2.92;;;22.40;90.40;;;;;;5072500;28;20093;-84
2023/05/28 11:51:19;;;;;;;6.78;2.40;;;22.40;90.70;;;;;;5073592;28;20044;-86
2023/05/28 11:53:46;;;;;;;7.43;2.22;;;22.40;91.00;;;;;;5106223;28;20084;-83
2023/05/28 11:56:13;;;;;;;6.32;2.47;;;22.50;90.90;;;;;;5056110;28;20515;-80
2023/05/28 11:58:48;;;;;;;6.78;2.28;;;22.50;91.00;;;;;;5072451;28;20556;-81
2023/05/28 12:01:16;;;;;;;8.57;2.70;;;22.30;90.20;;;;;;5072623;28;20037;-83
2023/05/28 12:03:43;;;;;;;6.68;2.38;;;22.20;91.30;;;;;;5089261;28;20305;-81
2023/05/28 12:06:11;;;;;;;10.30;2.78;;;22.10;91.50;;;;;;5073091;28;20040;-82
2023/05/28 12:08:39;;;;;;;6.20;2.30;;;22.10;91.70;;;;;;5052752;28;20493;-82
2023/05/28 12:11:09;;;;;;;10.15;2.55;;;21.90;91.50;;;;;;5068556;28;20136;-82
2023/05/28 12:13:36;;;;;;;8.05;2.30;;;21.80;91.70;;;;;;5068986;28;20068;-83
2023/05/28 12:16:07;;;;;;;7.55;2.78;;;21.90;92.20;;;;;;5069259;28;20076;-82
2023/05/28 12:18:34;;;;;;;7.72;2.40;;;21.90;91.90;;;;;;5085109;28;20082;-82
2023/05/28 12:21:00;;;;;;;9.35;2.60;;;21.80;92.00;;;;;;5052456;28;20135;-82
2023/05/28 12:23:28;;;;;;;7.60;2.85;;;21.80;92.10;;;;;;5085717;28;20068;-81
2023/05/28 12:25:55;;;;;;;6.28;2.25;;;21.80;92.40;;;;;;5052589;28;20033;-83
2023/05/28 12:28:22;;;;;;;7.10;2.58;;;21.80;92.30;;;;;;5068375;28;20044;-82
2023/05/28 12:30:52;;;;;;;6.80;2.50;;;21.80;92.70;;;;;;5085282;28;20487;-81
2023/05/28 12:33:20;;;;;;;7.75;2.45;;;21.90;92.90;;;;;;5068179;28;20497;-81
2023/05/28 12:35:47;;;;;;;6.43;2.20;;;21.90;92.40;;;;;;5068549;28;20041;-82
2023/05/28 12:38:14;;;;;;;5.10;2.33;;;21.80;92.80;;;;;;5067886;28;20053;-82
2023/05/28 12:40:41;;;;;;;4.00;1.65;;;21.80;92.90;;;;;;5068349;28;20056;-82
2023/05/28 12:43:08;;;;;;;7.13;1.75;;;22.00;92.90;;;;;;5068580;28;20043;-82